Terminal Aerodrome Forecast
Issued by NWS

Home | Current Version | Previous Version | Text Only | Print | Product List | Glossary On
Versions: 1 2 3 4 5 6 7 8 9 10 11 12 13 14 15 16 17 18 19 20 21 22 23
820
FTUS46 KEKA 291315 CCB
TAFCEC
TAF COR
KCEC 291315Z 2912/3012 VRB03KT P6SM BKN016
     FM291300 VRB06KT P6SM BKN020 OVC070
     FM291700 32008KT P6SM BKN060
     FM292100 32015G22KT P6SM BKN050
     FM300100 35018G24KT P6SM SKC
     FM300800 35015G24KT P6SM SKC=

USA.gov is the U.S. government's official web portal to all federal, state and local government web resources and services.